Time;durP1;ratioP1;P1;durP2;ratioP2;P2;SDS_P1;SDS_P2;PMS_P1;PMS_P2;Temp;Humidity;BMP_temperature;BMP_pressure;BME280_temperature;BME280_humidity;BME280_pressure;Samples;Min_cycle;Max_cycle;Signal;HPM_P1;HPM_P2
2022/08/24 00:01:21;;;;;;;0.10;0.10;;;18.90;99.90;;;;;;4893752;29;21033;-80
2022/08/24 00:03:47;;;;;;;0.10;0.10;;;18.90;99.90;;;;;;4893705;29;20461;-81
2022/08/24 00:06:18;;;;;;;0.10;0.10;;;18.80;99.90;;;;;;4894087;29;20437;-82
2022/08/24 00:08:49;;;;;;;0.10;0.10;;;18.90;99.90;;;;;;4890993;29;20989;-82
2022/08/24 00:11:15;;;;;;;0.10;0.10;;;18.90;99.90;;;;;;4893488;29;20977;-83
2022/08/24 00:13:41;;;;;;;0.10;0.10;;;19.00;99.90;;;;;;4889719;29;20470;-83
2022/08/24 00:16:08;;;;;;;0.10;0.10;;;18.90;99.90;;;;;;4889518;29;20564;-83
2022/08/24 00:18:34;;;;;;;0.10;0.10;;;19.00;99.90;;;;;;4897077;29;20190;-83
2022/08/24 00:21:00;;;;;;;0.10;0.10;;;18.90;99.90;;;;;;4892452;29;20790;-81
2022/08/24 00:23:27;;;;;;;0.10;0.10;;;18.90;99.90;;;;;;4890041;29;21907;-82
2022/08/24 00:25:53;;;;;;;0.10;0.10;;;18.90;99.90;;;;;;4894044;29;20455;-84
2022/08/24 00:28:18;;;;;;;0.10;0.10;;;18.80;99.90;;;;;;4890937;29;20492;-85
2022/08/24 00:30:44;;;;;;;0.10;0.10;;;18.80;99.90;;;;;;4894714;29;20193;-84
2022/08/24 00:33:09;;;;;;;0.10;0.10;;;18.80;99.90;;;;;;4895096;29;20200;-85
2022/08/24 00:35:35;;;;;;;0.10;0.10;;;18.80;99.90;;;;;;4895465;29;20189;-84
2022/08/24 00:38:01;;;;;;;0.10;0.10;;;18.80;99.90;;;;;;4894540;29;20265;-85
2022/08/24 00:40:32;;;;;;;0.10;0.10;;;18.70;99.90;;;;;;4893631;29;20276;-84
2022/08/24 00:43:02;;;;;;;0.10;0.10;;;18.70;99.90;;;;;;4891497;29;20548;-85
2022/08/24 00:45:28;;;;;;;0.10;0.10;;;18.80;99.90;;;;;;4895246;29;20520;-85
2022/08/24 00:47:59;;;;;;;0.10;0.10;;;18.70;99.90;;;;;;4895029;29;20501;-84
2022/08/24 00:50:38;;;;;;;0.10;0.10;;;18.60;99.90;;;;;;4895243;29;20453;-85
2022/08/24 00:53:10;;;;;;;0.10;0.10;;;18.60;99.90;;;;;;4891397;29;20520;-86
2022/08/24 00:55:40;;;;;;;0.10;0.10;;;18.60;99.90;;;;;;4893495;29;21032;-85
2022/08/24 00:58:11;;;;;;;0.10;0.10;;;18.60;99.90;;;;;;4895001;29;20643;-85
2022/08/24 01:00:43;;;;;;;0.10;0.10;;;18.60;99.90;;;;;;4889607;29;20468;-85
2022/08/24 01:03:09;;;;;;;0.10;0.10;;;18.50;99.90;;;;;;4893436;29;20991;-85
2022/08/24 01:05:37;;;;;;;0.10;0.10;;;18.60;99.90;;;;;;4893312;29;20464;-85
2022/08/24 01:08:06;;;;;;;0.10;0.10;;;18.50;99.90;;;;;;4893888;29;20241;-85
2022/08/24 01:10:41;;;;;;;0.10;0.00;;;18.50;99.90;;;;;;4892175;29;20453;-85
2022/08/24 01:13:10;;;;;;;0.10;0.10;;;18.40;99.90;;;;;;4893353;29;20511;-85
2022/08/24 01:15:39;;;;;;;0.10;0.10;;;18.50;99.90;;;;;;4880992;29;21135;-86
2022/08/24 01:21:01;;;;;;;0.10;0.10;;;18.40;99.90;;;;;;4893613;29;20452;-85
2022/08/24 01:23:42;;;;;;;0.10;0.10;;;18.40;99.90;;;;;;4884591;29;20457;-85
2022/08/24 01:26:12;;;;;;;0.10;0.10;;;18.40;99.90;;;;;;4890489;29;20475;-85
2022/08/24 01:28:39;;;;;;;0.10;0.10;;;18.40;99.90;;;;;;4891563;29;20497;-84
2022/08/24 01:31:05;;;;;;;0.10;0.10;;;18.40;99.90;;;;;;4891795;29;20464;-84
2022/08/24 01:33:31;;;;;;;0.10;0.10;;;18.40;99.90;;;;;;4895101;29;20465;-85
2022/08/24 01:36:03;;;;;;;0.10;0.10;;;18.30;99.90;;;;;;4895373;29;20957;-85
2022/08/24 01:38:29;;;;;;;0.10;0.10;;;18.30;99.90;;;;;;4899212;29;20521;-85
2022/08/24 01:40:59;;;;;;;0.10;0.10;;;18.30;99.90;;;;;;4891347;29;20892;-85
2022/08/24 01:43:25;;;;;;;0.10;0.10;;;18.10;99.90;;;;;;4889051;29;20279;-86
2022/08/24 01:45:51;;;;;;;0.10;0.10;;;18.10;99.90;;;;;;4892399;29;20585;-84
2022/08/24 01:48:16;;;;;;;0.10;0.10;;;18.20;99.90;;;;;;4894513;29;20320;-85
2022/08/24 01:50:42;;;;;;;0.10;0.10;;;18.20;99.90;;;;;;4890036;29;20197;-84
2022/08/24 01:53:08;;;;;;;0.10;0.10;;;18.20;99.90;;;;;;4893523;29;20189;-84
2022/08/24 01:55:35;;;;;;;0.10;0.10;;;18.10;99.90;;;;;;4895527;29;20197;-85
2022/08/24 01:58:01;;;;;;;0.10;0.10;;;18.10;99.90;;;;;;4895073;29;20433;-85
2022/08/24 02:00:27;;;;;;;0.10;0.10;;;18.10;99.90;;;;;;4889749;29;20444;-85
2022/08/24 02:02:55;;;;;;;0.10;0.10;;;18.10;99.90;;;;;;4893056;29;20883;-85
2022/08/24 02:05:22;;;;;;;0.10;0.10;;;18.10;99.90;;;;;;4894442;29;20457;-84
2022/08/24 02:07:48;;;;;;;0.10;0.10;;;18.10;99.90;;;;;;4893660;29;20492;-84
2022/08/24 02:10:14;;;;;;;0.10;0.10;;;18.10;99.90;;;;;;4894210;29;20977;-85
2022/08/24 02:12:43;;;;;;;0.10;0.10;;;18.10;99.90;;;;;;4895430;29;20275;-84
2022/08/24 02:15:09;;;;;;;0.10;0.10;;;18.10;99.90;;;;;;4895191;29;20327;-85
2022/08/24 02:17:36;;;;;;;0.10;0.10;;;18.10;99.90;;;;;;4894833;29;20540;-84
2022/08/24 02:20:04;;;;;;;0.10;0.10;;;18.00;99.90;;;;;;4894234;29;20488;-84
2022/08/24 02:22:29;;;;;;;0.10;0.10;;;18.00;99.90;;;;;;4892024;29;20544;-84
2022/08/24 02:24:55;;;;;;;0.10;0.10;;;18.00;99.90;;;;;;4893790;29;20441;-84
2022/08/24 02:27:20;;;;;;;0.10;0.10;;;18.00;99.90;;;;;;4888104;29;20212;-84
2022/08/24 02:29:46;;;;;;;0.10;0.10;;;18.00;99.90;;;;;;4893228;29;20708;-84
2022/08/24 02:32:12;;;;;;;0.10;0.10;;;17.90;99.90;;;;;;4892552;29;20196;-85
2022/08/24 02:34:37;;;;;;;0.10;0.10;;;17.80;99.90;;;;;;4894145;29;20665;-82
2022/08/24 02:37:04;;;;;;;0.10;0.10;;;17.80;99.90;;;;;;4907858;29;21016;-82
2022/08/24 02:39:29;;;;;;;0.10;0.10;;;17.80;99.90;;;;;;4890019;29;20197;-82
2022/08/24 02:41:55;;;;;;;0.10;0.10;;;17.80;99.90;;;;;;4893543;29;20476;-83
2022/08/24 02:44:21;;;;;;;0.10;0.10;;;17.80;99.90;;;;;;4893089;29;20503;-85
2022/08/24 02:46:46;;;;;;;0.10;0.10;;;17.80;99.90;;;;;;4889970;29;21079;-85
2022/08/24 02:49:12;;;;;;;0.10;0.10;;;17.80;99.90;;;;;;4883242;29;20199;-84
2022/08/24 02:51:40;;;;;;;0.10;0.10;;;17.80;99.90;;;;;;4890154;29;20193;-85
2022/08/24 02:54:06;;;;;;;0.10;0.10;;;17.70;99.90;;;;;;4891228;29;20189;-85
2022/08/24 02:56:32;;;;;;;0.10;0.10;;;17.60;99.90;;;;;;4892989;29;20449;-85
2022/08/24 02:58:59;;;;;;;0.10;0.10;;;17.60;99.90;;;;;;4891782;29;20548;-85
2022/08/24 03:01:26;;;;;;;0.10;0.10;;;17.50;99.90;;;;;;4892983;29;20201;-84
2022/08/24 03:03:51;;;;;;;0.10;0.10;;;17.60;99.90;;;;;;4891058;29;20461;-85
2022/08/24 03:06:17;;;;;;;0.10;0.10;;;17.60;99.90;;;;;;4893809;29;20570;-84
2022/08/24 03:08:44;;;;;;;0.10;0.10;;;17.60;99.90;;;;;;4893530;29;20220;-85
2022/08/24 03:11:10;;;;;;;0.10;0.10;;;17.60;99.90;;;;;;4892360;29;20249;-85
2022/08/24 03:13:37;;;;;;;0.10;0.10;;;17.60;99.90;;;;;;4890906;29;20521;-85
2022/08/24 03:16:04;;;;;;;0.10;0.10;;;17.50;99.90;;;;;;4892381;29;20710;-85
2022/08/24 03:18:29;;;;;;;0.10;0.10;;;17.50;99.90;;;;;;4893273;29;20461;-85
2022/08/24 03:20:57;;;;;;;0.10;0.10;;;17.50;99.90;;;;;;4891911;29;20460;-85
2022/08/24 03:23:23;;;;;;;0.10;0.10;;;17.50;99.90;;;;;;4893309;29;20615;-85
2022/08/24 03:25:51;;;;;;;0.10;0.10;;;17.50;99.90;;;;;;4890337;29;20449;-84
2022/08/24 03:28:18;;;;;;;0.10;0.10;;;17.40;99.90;;;;;;4891643;29;20504;-85
2022/08/24 03:30:44;;;;;;;0.10;0.10;;;17.40;99.90;;;;;;4892757;29;20449;-85
2022/08/24 03:33:10;;;;;;;0.10;0.10;;;17.50;99.90;;;;;;4892926;29;20460;-84
2022/08/24 03:35:35;;;;;;;0.10;0.10;;;17.40;99.90;;;;;;4894121;29;20193;-83
2022/08/24 03:38:01;;;;;;;0.10;0.10;;;17.40;99.90;;;;;;4891711;29;20658;-82
2022/08/24 03:40:27;;;;;;;0.10;0.10;;;17.30;99.90;;;;;;4892027;29;20196;-85
2022/08/24 03:42:53;;;;;;;0.10;0.10;;;17.40;99.90;;;;;;4893179;29;20255;-85
2022/08/24 03:45:19;;;;;;;0.10;0.10;;;17.30;99.90;;;;;;4893075;29;20204;-85
2022/08/24 03:47:45;;;;;;;0.10;0.10;;;17.30;99.90;;;;;;4893577;29;20225;-85
2022/08/24 03:50:11;;;;;;;0.10;0.10;;;17.20;99.90;;;;;;4894147;29;20456;-85
2022/08/24 03:52:36;;;;;;;0.10;0.10;;;17.20;99.90;;;;;;4891629;29;20196;-86
2022/08/24 03:55:06;;;;;;;0.10;0.10;;;17.30;99.90;;;;;;4887568;29;20446;-84
2022/08/24 03:57:32;;;;;;;0.10;0.10;;;17.30;99.90;;;;;;4887821;29;20201;-82
2022/08/24 03:59:57;;;;;;;0.10;0.10;;;17.20;99.90;;;;;;4907241;29;20539;-83
2022/08/24 04:02:23;;;;;;;0.10;0.10;;;17.20;99.90;;;;;;4890545;29;20544;-82
2022/08/24 04:04:49;;;;;;;0.10;0.10;;;17.20;99.90;;;;;;4887950;29;20221;-82
2022/08/24 04:07:15;;;;;;;0.10;0.10;;;17.20;99.90;;;;;;4890350;29;20213;-82
2022/08/24 04:09:40;;;;;;;0.10;0.10;;;17.20;99.90;;;;;;4888969;29;20469;-82
2022/08/24 04:12:06;;;;;;;0.10;0.10;;;17.20;99.90;;;;;;4889961;29;20272;-82
2022/08/24 04:14:33;;;;;;;0.10;0.10;;;17.10;99.90;;;;;;4905783;29;20280;-83
2022/08/24 04:16:59;;;;;;;0.10;0.10;;;17.10;99.90;;;;;;4891939;29;20185;-82
2022/08/24 04:19:25;;;;;;;0.10;0.10;;;17.10;99.90;;;;;;4889943;29;20453;-83
2022/08/24 04:21:51;;;;;;;0.10;0.10;;;17.20;99.90;;;;;;4906561;29;20193;-83
2022/08/24 04:24:18;;;;;;;0.10;0.10;;;17.20;99.90;;;;;;4891700;29;20455;-83
2022/08/24 04:26:43;;;;;;;0.10;0.10;;;17.10;99.90;;;;;;4890591;29;20452;-82
2022/08/24 04:29:11;;;;;;;0.10;0.10;;;17.20;99.90;;;;;;4893204;29;20469;-82
2022/08/24 04:31:38;;;;;;;0.10;0.10;;;17.20;99.90;;;;;;4895070;29;20189;-83
2022/08/24 04:34:04;;;;;;;0.10;0.10;;;17.20;99.90;;;;;;4891279;29;20445;-82
2022/08/24 04:36:31;;;;;;;0.10;0.10;;;17.10;99.90;;;;;;4894693;29;20451;-83
2022/08/24 04:38:56;;;;;;;0.10;0.10;;;17.20;99.90;;;;;;4895636;29;20464;-83
2022/08/24 04:41:22;;;;;;;0.10;0.10;;;17.20;99.90;;;;;;4887939;29;20462;-83
2022/08/24 04:43:49;;;;;;;0.10;0.10;;;17.20;99.90;;;;;;4891999;29;20193;-83
2022/08/24 04:46:17;;;;;;;0.10;0.10;;;17.30;99.90;;;;;;4894772;29;20540;-83
2022/08/24 04:48:45;;;;;;;0.10;0.10;;;17.20;99.90;;;;;;4896394;29;20496;-82
2022/08/24 04:51:12;;;;;;;0.10;0.10;;;17.10;99.90;;;;;;4895818;29;20445;-84
2022/08/24 04:53:39;;;;;;;0.10;0.10;;;17.20;99.90;;;;;;4894557;29;20453;-85
2022/08/24 04:56:11;;;;;;;0.10;0.10;;;17.30;99.90;;;;;;4889474;29;20437;-85
2022/08/24 04:58:38;;;;;;;0.10;0.10;;;17.20;99.90;;;;;;4891283;29;20490;-86
2022/08/24 05:01:08;;;;;;;0.10;0.10;;;17.30;99.90;;;;;;4890101;29;20543;-83
2022/08/24 05:03:34;;;;;;;0.10;0.10;;;17.30;99.90;;;;;;4895381;29;20596;-84
2022/08/24 05:05:59;;;;;;;0.10;0.10;;;17.30;99.90;;;;;;4894607;29;20536;-83
2022/08/24 05:08:25;;;;;;;0.10;0.10;;;17.40;99.90;;;;;;4896312;29;20217;-83
2022/08/24 05:10:50;;;;;;;0.10;0.10;;;17.50;99.90;;;;;;4897290;29;20185;-83
2022/08/24 05:13:16;;;;;;;0.10;0.10;;;17.40;99.90;;;;;;4892901;29;20329;-82
2022/08/24 05:15:45;;;;;;;0.10;0.10;;;17.50;99.90;;;;;;4904266;29;20232;-82
2022/08/24 05:18:12;;;;;;;0.10;0.10;;;17.60;99.90;;;;;;4889087;29;20928;-82
2022/08/24 05:20:42;;;;;;;0.10;0.10;;;17.60;99.90;;;;;;4892205;29;20452;-83
2022/08/24 05:23:08;;;;;;;0.10;0.10;;;17.70;99.90;;;;;;4885740;29;20461;-82
2022/08/24 05:25:34;;;;;;;0.10;0.10;;;17.70;99.90;;;;;;4894179;29;20449;-83
2022/08/24 05:27:59;;;;;;;0.10;0.10;;;17.70;99.90;;;;;;4895079;29;20717;-82
2022/08/24 05:30:25;;;;;;;0.10;0.10;;;17.80;99.90;;;;;;4895125;29;20193;-82
2022/08/24 05:32:50;;;;;;;0.10;0.10;;;17.80;99.90;;;;;;4894462;29;20666;-84
2022/08/24 05:35:16;;;;;;;0.10;0.10;;;17.90;99.90;;;;;;4896123;29;20205;-84
2022/08/24 05:37:42;;;;;;;0.10;0.10;;;17.90;99.90;;;;;;4905037;29;20558;-83
2022/08/24 05:40:11;;;;;;;0.10;0.10;;;18.00;99.90;;;;;;4895913;29;20185;-83
2022/08/24 05:42:37;;;;;;;0.10;0.10;;;18.10;99.90;;;;;;4891196;29;20460;-84
2022/08/24 05:45:05;;;;;;;0.10;0.10;;;18.10;99.90;;;;;;4889042;29;20458;-83
2022/08/24 05:47:31;;;;;;;0.10;0.10;;;18.20;99.90;;;;;;4884012;29;20567;-82
2022/08/24 05:49:56;;;;;;;0.10;0.10;;;18.20;99.90;;;;;;4892102;29;21040;-82
2022/08/24 05:52:22;;;;;;;0.10;0.10;;;18.30;99.90;;;;;;4894287;29;20205;-83
2022/08/24 05:54:56;;;;;;;0.10;0.10;;;18.30;99.90;;;;;;4895173;29;20670;-82
2022/08/24 05:57:23;;;;;;;0.10;0.10;;;18.30;99.90;;;;;;4893747;29;20201;-82
2022/08/24 05:59:49;;;;;;;0.10;0.10;;;18.40;99.90;;;;;;4893056;29;20827;-81
2022/08/24 06:02:15;;;;;;;0.10;0.10;;;18.40;99.90;;;;;;4892157;29;20452;-83
2022/08/24 06:04:41;;;;;;;0.10;0.10;;;18.40;99.90;;;;;;4892030;29;20477;-81
2022/08/24 06:07:10;;;;;;;0.10;0.10;;;18.50;99.90;;;;;;4886587;29;20621;-80
2022/08/24 06:09:38;;;;;;;0.10;0.10;;;18.60;99.90;;;;;;4887717;29;20197;-81
2022/08/24 06:12:04;;;;;;;0.10;0.10;;;18.60;99.90;;;;;;4887916;29;20472;-81
2022/08/24 06:14:30;;;;;;;0.10;0.10;;;18.70;99.90;;;;;;4886542;29;20473;-82
2022/08/24 06:16:56;;;;;;;0.10;0.10;;;18.80;99.90;;;;;;4900891;29;20442;-81
2022/08/24 06:19:22;;;;;;;0.10;0.10;;;18.90;99.90;;;;;;4890916;29;20561;-82
2022/08/24 06:21:50;;;;;;;0.10;0.10;;;19.00;99.90;;;;;;4886717;29;20192;-82
2022/08/24 06:24:17;;;;;;;0.10;0.10;;;19.10;99.90;;;;;;4893611;29;21175;-82
2022/08/24 06:29:29;;;;;;;0.10;0.10;;;19.40;99.90;;;;;;4888409;29;20460;-82
2022/08/24 06:31:55;;;;;;;0.10;0.10;;;19.40;99.90;;;;;;4891623;29;20468;-83
2022/08/24 06:34:23;;;;;;;0.10;0.10;;;19.40;99.90;;;;;;4888562;29;20480;-82
2022/08/24 06:36:48;;;;;;;0.10;0.00;;;19.50;99.90;;;;;;4891845;29;20481;-82
2022/08/24 06:39:16;;;;;;;0.10;0.10;;;19.70;99.90;;;;;;4893270;29;20453;-83
2022/08/24 06:41:41;;;;;;;0.10;0.00;;;19.80;99.90;;;;;;4889104;29;20198;-83
2022/08/24 06:44:07;;;;;;;0.10;0.00;;;19.80;99.90;;;;;;4903430;29;20468;-81
2022/08/24 06:46:35;;;;;;;0.10;0.10;;;19.90;99.90;;;;;;4888637;29;20189;-83
2022/08/24 06:49:00;;;;;;;0.10;0.10;;;20.00;99.90;;;;;;4892163;29;20519;-83
2022/08/24 06:51:26;;;;;;;0.10;0.00;;;20.10;99.90;;;;;;4890685;29;20938;-84
2022/08/24 06:53:56;;;;;;;0.10;0.00;;;20.10;99.90;;;;;;4890452;29;20249;-83
2022/08/24 06:56:22;;;;;;;0.10;0.00;;;20.30;99.90;;;;;;4890298;29;20200;-83
2022/08/24 06:58:48;;;;;;;0.10;0.00;;;20.30;99.90;;;;;;4894438;29;20437;-83
2022/08/24 07:01:17;;;;;;;0.10;0.00;;;20.50;99.90;;;;;;4886109;29;20664;-84
2022/08/24 07:03:43;;;;;;;0.10;0.07;;;20.60;99.90;;;;;;4901850;29;20630;-85
2022/08/24 07:06:11;;;;;;;0.10;0.00;;;20.70;99.90;;;;;;4883558;29;20536;-84
2022/08/24 07:08:37;;;;;;;0.10;0.00;;;20.70;99.90;;;;;;4883453;29;20494;-84
2022/08/24 07:11:04;;;;;;;0.10;0.10;;;20.80;99.90;;;;;;4892912;29;20449;-83
2022/08/24 07:13:30;;;;;;;0.10;0.00;;;21.00;99.90;;;;;;4888567;29;20449;-84
2022/08/24 07:15:56;;;;;;;0.10;0.10;;;21.00;99.90;;;;;;4890546;29;20487;-84
2022/08/24 07:18:22;;;;;;;0.10;0.00;;;21.20;99.90;;;;;;4892387;29;21275;-84
2022/08/24 07:20:49;;;;;;;0.10;0.00;;;21.20;99.90;;;;;;4888181;29;20452;-86
2022/08/24 07:23:16;;;;;;;0.10;0.00;;;21.20;99.90;;;;;;4892760;29;20244;-86
2022/08/24 07:25:44;;;;;;;0.10;0.00;;;21.20;99.90;;;;;;4892990;29;20552;-86
2022/08/24 07:28:10;;;;;;;0.10;0.00;;;21.30;99.90;;;;;;4887742;29;20528;-87
2022/08/24 07:30:37;;;;;;;0.10;0.00;;;21.40;99.90;;;;;;4893419;29;20954;-83
2022/08/24 07:33:02;;;;;;;0.10;0.00;;;21.40;99.90;;;;;;4888683;29;21488;-85
2022/08/24 07:35:31;;;;;;;0.10;0.00;;;21.50;99.90;;;;;;4893285;29;20548;-85
2022/08/24 07:37:57;;;;;;;0.10;0.00;;;21.60;99.90;;;;;;4889994;29;20500;-86
2022/08/24 07:40:23;;;;;;;0.10;0.00;;;21.60;99.90;;;;;;4887718;29;20456;-85
2022/08/24 07:42:51;;;;;;;0.10;0.00;;;21.70;99.90;;;;;;4888023;29;20555;-86
2022/08/24 07:45:17;;;;;;;0.10;0.00;;;21.80;99.90;;;;;;4886323;29;20445;-84
2022/08/24 07:47:43;;;;;;;0.10;0.10;;;22.00;99.90;;;;;;4890308;29;20616;-86
2022/08/24 07:50:10;;;;;;;0.10;0.00;;;22.10;99.90;;;;;;4892913;29;20456;-83
2022/08/24 07:52:35;;;;;;;0.10;0.00;;;22.30;99.90;;;;;;4890930;29;20452;-83
2022/08/24 07:55:01;;;;;;;0.10;0.00;;;22.20;99.90;;;;;;4889366;29;20938;-87
2022/08/24 07:57:26;;;;;;;0.10;0.00;;;22.30;99.90;;;;;;4889199;29;20867;-84
2022/08/24 07:59:52;;;;;;;0.10;0.00;;;22.30;99.90;;;;;;4890939;29;20224;-82
2022/08/24 08:02:18;;;;;;;0.10;0.00;;;22.40;99.90;;;;;;4891033;29;20181;-82
2022/08/24 08:04:44;;;;;;;0.10;0.00;;;22.50;99.90;;;;;;4893331;29;20657;-79
2022/08/24 08:07:11;;;;;;;0.10;0.00;;;22.50;99.90;;;;;;4892492;29;20780;-84
2022/08/24 08:09:37;;;;;;;0.10;0.00;;;22.50;99.90;;;;;;4882062;29;20288;-82
2022/08/24 08:12:03;;;;;;;0.10;0.00;;;22.60;99.90;;;;;;4896558;29;20544;-85
2022/08/24 08:14:28;;;;;;;0.10;0.00;;;22.60;99.90;;;;;;4896080;29;20239;-85
2022/08/24 08:16:54;;;;;;;0.10;0.00;;;22.80;99.90;;;;;;4890964;29;20553;-87
2022/08/24 08:19:19;;;;;;;0.10;0.00;;;23.00;99.90;;;;;;4894121;29;20201;-82
2022/08/24 08:24:37;;;;;;;0.10;0.00;;;23.10;99.90;;;;;;4892720;29;20302;-80
2022/08/24 08:27:03;;;;;;;0.10;0.00;;;23.10;99.90;;;;;;4894675;29;20476;-81
2022/08/24 08:29:31;;;;;;;0.10;0.00;;;23.10;99.90;;;;;;4892467;29;20469;-81
2022/08/24 08:31:57;;;;;;;0.10;0.00;;;23.30;99.90;;;;;;4890607;29;20189;-81
2022/08/24 08:34:22;;;;;;;0.10;0.00;;;23.20;99.90;;;;;;4895455;29;20459;-82
2022/08/24 08:36:49;;;;;;;0.10;0.00;;;23.40;99.90;;;;;;4895139;29;20185;-81
2022/08/24 08:39:16;;;;;;;0.10;0.00;;;23.30;99.90;;;;;;4891160;29;20253;-81
2022/08/24 08:42:13;;;;;;;0.10;0.00;;;23.50;99.90;;;;;;4898143;29;20496;-81
2022/08/24 08:44:59;;;;;;;0.10;0.00;;;23.70;99.90;;;;;;4894684;29;20866;-82
2022/08/24 08:48:05;;;;;;;0.10;0.00;;;24.10;99.90;;;;;;4894507;29;20527;-82
2022/08/24 08:50:39;;;;;;;0.10;0.00;;;24.30;99.90;;;;;;4874183;29;20454;-82
2022/08/24 08:53:37;;;;;;;0.10;0.00;;;24.50;99.90;;;;;;4870694;29;20454;-81
2022/08/24 08:56:33;;;;;;;0.10;0.00;;;24.60;99.90;;;;;;4886546;29;20511;-81
2022/08/24 08:59:15;;;;;;;0.10;0.00;;;24.60;99.90;;;;;;4892851;29;20449;-82
2022/08/24 09:01:55;;;;;;;0.10;0.00;;;24.60;99.90;;;;;;4890466;29;20465;-83
2022/08/24 09:05:03;;;;;;;0.10;0.00;;;24.80;99.90;;;;;;4893370;29;20464;-82
2022/08/24 09:08:18;;;;;;;0.10;0.00;;;25.00;99.90;;;;;;4889720;29;20499;-84
2022/08/24 09:10:53;;;;;;;0.10;0.00;;;24.70;99.90;;;;;;4862395;29;20458;-83
2022/08/24 09:13:42;;;;;;;0.10;0.00;;;24.90;99.90;;;;;;4895435;29;20456;-83
2022/08/24 09:16:26;;;;;;;0.10;0.00;;;25.10;99.90;;;;;;4894380;29;20500;-82
2022/08/24 09:19:12;;;;;;;0.10;0.00;;;25.30;99.90;;;;;;4891985;29;20878;-82
2022/08/24 09:22:06;;;;;;;0.10;0.00;;;25.30;99.90;;;;;;4895475;29;20512;-81
2022/08/24 09:24:53;;;;;;;0.10;0.00;;;25.60;99.90;;;;;;4883632;29;21098;-82
2022/08/24 09:27:45;;;;;;;0.10;0.00;;;26.00;99.90;;;;;;4887580;29;20532;-84
2022/08/24 09:30:13;;;;;;;0.10;0.00;;;26.00;99.90;;;;;;4892682;29;20485;-81
2022/08/24 09:33:16;;;;;;;0.10;0.00;;;26.00;99.90;;;;;;4891664;29;20496;-81
2022/08/24 09:36:16;;;;;;;0.10;0.00;;;26.00;99.90;;;;;;4894646;29;20460;-82
2022/08/24 09:39:09;;;;;;;0.10;0.00;;;26.10;99.90;;;;;;4907712;29;20900;-81
2022/08/24 09:41:59;;;;;;;0.10;0.00;;;26.10;99.90;;;;;;4890390;29;20461;-81
2022/08/24 09:44:49;;;;;;;0.10;0.00;;;26.20;99.90;;;;;;4892000;29;20509;-83
2022/08/24 09:47:31;;;;;;;0.10;0.00;;;26.50;99.90;;;;;;4889788;29;20475;-82
2022/08/24 09:50:18;;;;;;;0.10;0.00;;;26.50;99.90;;;;;;4893213;29;20457;-82
2022/08/24 09:53:05;;;;;;;0.10;0.00;;;26.10;99.90;;;;;;4894190;29;20984;-83
2022/08/24 09:56:00;;;;;;;0.10;0.00;;;26.40;99.90;;;;;;4889168;29;20886;-82
2022/08/24 09:58:44;;;;;;;0.10;0.00;;;26.60;99.90;;;;;;4876754;29;20452;-83
2022/08/24 10:01:47;;;;;;;0.10;0.00;;;26.70;99.90;;;;;;4880100;29;20458;-84
2022/08/24 10:04:18;;;;;;;0.10;0.00;;;27.00;99.90;;;;;;4884156;29;20467;-83
2022/08/24 10:06:52;;;;;;;0.10;0.00;;;27.30;99.90;;;;;;4886711;29;20445;-82
2022/08/24 10:09:40;;;;;;;0.10;0.00;;;27.20;99.90;;;;;;4901233;29;20487;-85
2022/08/24 10:12:28;;;;;;;0.10;0.00;;;27.60;99.90;;;;;;4889722;29;20536;-81
2022/08/24 10:15:15;;;;;;;0.10;0.00;;;27.50;99.90;;;;;;4877737;29;21008;-83
2022/08/24 10:18:19;;;;;;;0.10;0.00;;;27.70;99.90;;;;;;4892632;29;20453;-82
2022/08/24 10:21:11;;;;;;;0.10;0.00;;;27.90;99.90;;;;;;4882738;29;20513;-88
2022/08/24 10:23:47;;;;;;;0.10;0.00;;;28.30;99.90;;;;;;4883794;29;20460;-88
2022/08/24 10:26:29;;;;;;;0.10;0.00;;;28.70;99.90;;;;;;4883791;29;20471;-89
2022/08/24 10:29:23;;;;;;;0.10;0.00;;;28.40;99.90;;;;;;4887781;29;20493;-86
2022/08/24 10:32:21;;;;;;;0.10;0.00;;;28.40;99.90;;;;;;4892153;29;20445;-86
2022/08/24 10:35:11;;;;;;;0.10;0.00;;;28.50;99.90;;;;;;4907658;29;20449;-86
2022/08/24 10:39:39;;;;;;;0.10;0.00;;;28.90;99.90;;;;;;4889414;29;20446;-86
2022/08/24 10:41:08;;;;;;;0.10;0.00;;;28.70;99.90;;;;;;4889705;29;21058;-87
2022/08/24 10:44:19;;;;;;;0.10;0.00;;;28.80;99.90;;;;;;4893721;29;20453;-84
2022/08/24 10:46:58;;;;;;;0.10;0.00;;;29.10;99.90;;;;;;4891856;29;20453;-87
2022/08/24 10:49:36;;;;;;;0.10;0.00;;;29.10;99.90;;;;;;4888406;29;20524;-85
2022/08/24 10:52:46;;;;;;;0.10;0.00;;;29.40;99.90;;;;;;4885056;29;20453;-86
2022/08/24 10:55:14;;;;;;;0.10;0.00;;;30.10;99.90;;;;;;4888605;29;20857;-86
2022/08/24 10:57:56;;;;;;;0.10;0.00;;;30.20;99.90;;;;;;4892782;29;20492;-84
2022/08/24 11:00:27;;;;;;;0.10;0.00;;;30.30;99.90;;;;;;4890943;29;20460;-84
2022/08/24 11:03:13;;;;;;;0.10;0.00;;;30.10;99.90;;;;;;4893778;29;20433;-83
2022/08/24 11:05:46;;;;;;;0.10;0.00;;;30.10;99.90;;;;;;4903250;29;20449;-83
2022/08/24 11:08:27;;;;;;;0.10;0.00;;;30.30;99.90;;;;;;4887844;29;20526;-79
2022/08/24 11:11:12;;;;;;;0.10;0.00;;;30.10;99.90;;;;;;4908170;29;20444;-79
2022/08/24 11:13:51;;;;;;;0.10;0.00;;;30.20;99.90;;;;;;4891425;29;20488;-79
2022/08/24 11:16:44;;;;;;;0.10;0.00;;;30.20;99.90;;;;;;4894233;29;20457;-79
2022/08/24 11:19:26;;;;;;;0.10;0.00;;;31.00;99.90;;;;;;4890622;29;20552;-79
2022/08/24 11:22:00;;;;;;;0.10;0.00;;;31.40;99.90;;;;;;4892124;29;20487;-80
2022/08/24 11:24:26;;;;;;;0.10;0.00;;;31.30;99.90;;;;;;4906938;29;20539;-80
2022/08/24 11:27:16;;;;;;;0.10;0.00;;;31.20;99.90;;;;;;4892537;29;20555;-79
2022/08/24 11:29:51;;;;;;;0.10;0.00;;;30.70;99.90;;;;;;4893350;29;20227;-81
2022/08/24 11:32:52;;;;;;;0.10;0.00;;;31.10;99.90;;;;;;4891909;29;20941;-81
2022/08/24 11:35:22;;;;;;;0.10;0.00;;;31.10;99.90;;;;;;4884067;29;20473;-79
2022/08/24 11:37:50;;;;;;;0.10;0.00;;;30.90;99.90;;;;;;4894676;29;20456;-80
2022/08/24 11:40:18;;;;;;;0.10;0.00;;;31.00;99.90;;;;;;4896231;29;20546;-79
2022/08/24 11:43:02;;;;;;;0.10;0.00;;;31.20;99.90;;;;;;4895816;29;21019;-81
2022/08/24 11:45:51;;;;;;;0.10;0.00;;;31.60;99.90;;;;;;4898935;29;20940;-80
2022/08/24 11:48:43;;;;;;;0.10;0.00;;;31.40;99.90;;;;;;4894799;29;20603;-83
2022/08/24 11:51:39;;;;;;;0.10;0.00;;;31.40;99.90;;;;;;4894987;29;20536;-82
2022/08/24 11:54:24;;;;;;;0.10;0.00;;;31.80;99.90;;;;;;4892706;29;20852;-83
2022/08/24 11:57:03;;;;;;;0.10;0.00;;;32.40;99.90;;;;;;4893024;29;21004;-79
2022/08/24 11:59:49;;;;;;;0.10;0.00;;;32.10;99.90;;;;;;4895947;29;20449;-79
2022/08/24 12:02:32;;;;;;;0.10;0.00;;;32.30;99.80;;;;;;4894146;29;20815;-80
2022/08/24 12:05:24;;;;;;;0.10;0.00;;;31.70;99.90;;;;;;4895968;29;20445;-80
2022/08/24 12:08:20;;;;;;;0.10;0.00;;;31.90;99.90;;;;;;4891771;29;20625;-81
2022/08/24 12:10:52;;;;;;;0.10;0.00;;;32.00;99.90;;;;;;4895595;29;20453;-81
2022/08/24 12:13:55;;;;;;;0.10;0.00;;;32.00;99.90;;;;;;4896044;29;20468;-81
2022/08/24 12:16:41;;;;;;;0.10;0.00;;;32.90;99.10;;;;;;4896974;29;20965;-79
2022/08/24 12:19:25;;;;;;;0.10;0.00;;;32.30;97.30;;;;;;4894794;29;20503;-82
2022/08/24 12:21:56;;;;;;;0.10;0.00;;;32.50;98.30;;;;;;4891725;29;20459;-80
2022/08/24 12:24:44;;;;;;;0.10;0.00;;;32.70;99.30;;;;;;4887342;29;20452;-81
2022/08/24 12:27:21;;;;;;;0.10;0.00;;;33.20;97.30;;;;;;4909008;29;20539;-81
2022/08/24 12:30:11;;;;;;;0.10;0.00;;;33.20;96.80;;;;;;4893052;29;20484;-80
2022/08/24 12:32:55;;;;;;;0.10;0.00;;;33.40;96.60;;;;;;4891824;29;20492;-81
2022/08/24 12:35:28;;;;;;;0.10;0.00;;;33.50;97.30;;;;;;4891144;29;20863;-81
2022/08/24 12:38:07;;;;;;;0.10;0.00;;;32.60;96.90;;;;;;4894797;29;20448;-81
2022/08/24 12:41:02;;;;;;;0.10;0.00;;;32.70;96.10;;;;;;4890967;29;20529;-80
2022/08/24 12:43:50;;;;;;;0.10;0.00;;;33.60;95.50;;;;;;4892750;29;20464;-81
2022/08/24 12:46:21;;;;;;;0.10;0.00;;;34.20;93.80;;;;;;4892520;29;20468;-78
2022/08/24 12:48:57;;;;;;;0.10;0.00;;;34.30;95.10;;;;;;4893140;29;20495;-77
2022/08/24 12:52:02;;;;;;;0.10;0.00;;;34.10;95.40;;;;;;4891649;29;20972;-79
2022/08/24 12:54:55;;;;;;;0.10;0.00;;;33.70;95.40;;;;;;4890158;29;20461;-79
2022/08/24 12:57:38;;;;;;;0.10;0.00;;;34.60;93.60;;;;;;4885543;29;20508;-78
2022/08/24 13:00:23;;;;;;;0.10;0.00;;;34.00;91.70;;;;;;4888993;29;20961;-76
2022/08/24 13:03:00;;;;;;;0.10;0.00;;;34.60;91.00;;;;;;4889628;29;20457;-78
2022/08/24 13:05:42;;;;;;;0.10;0.00;;;34.10;90.70;;;;;;4893648;29;20445;-79
2022/08/24 13:08:11;;;;;;;0.10;0.00;;;33.60;92.70;;;;;;4894008;29;20512;-78
2022/08/24 13:10:43;;;;;;;0.10;0.00;;;34.10;92.30;;;;;;4890749;29;20448;-77
2022/08/24 13:13:18;;;;;;;0.10;0.00;;;34.10;92.40;;;;;;4887208;29;20456;-77
2022/08/24 13:15:43;;;;;;;0.10;0.00;;;34.30;92.50;;;;;;4895647;29;20484;-76
2022/08/24 13:18:09;;;;;;;0.10;0.00;;;34.00;92.60;;;;;;4892718;29;20463;-78
2022/08/24 13:20:37;;;;;;;0.10;0.00;;;34.20;92.10;;;;;;4895159;29;20281;-81
2022/08/24 13:23:12;;;;;;;0.10;0.00;;;34.20;92.70;;;;;;4895230;29;20654;-80
2022/08/24 13:25:46;;;;;;;0.10;0.00;;;34.30;91.90;;;;;;4889664;29;20460;-79